createdAt,value
2019-01-04T00:01:44.230Z,1.60
2019-01-04T00:04:15.707Z,1.60
2019-01-04T00:06:44.818Z,1.50
2019-01-04T00:09:13.914Z,1.60
2019-01-04T00:11:43.327Z,1.50
2019-01-04T00:14:12.402Z,1.40
2019-01-04T00:16:42.050Z,1.50
2019-01-04T00:19:11.142Z,1.30
2019-01-04T00:21:40.251Z,1.20
2019-01-04T00:24:09.611Z,1.10
2019-01-04T00:26:39.010Z,1.10
2019-01-04T00:29:08.381Z,1.00
2019-01-04T00:31:38.008Z,0.80
2019-01-04T00:34:07.690Z,0.90
2019-01-04T00:36:37.104Z,0.80
2019-01-04T00:39:07.009Z,0.80
2019-01-04T00:41:36.114Z,0.70
2019-01-04T00:44:05.294Z,0.80
2019-01-04T00:46:34.411Z,0.90
2019-01-04T00:49:03.513Z,0.90
2019-01-04T00:51:32.614Z,0.90
2019-01-04T00:54:01.713Z,0.80
2019-01-04T00:57:04.651Z,0.70
2019-01-04T01:00:09.453Z,0.80
2019-01-04T01:03:27.567Z,0.80
2019-01-04T01:06:32.576Z,0.90
2019-01-04T01:09:46.141Z,0.80
2019-01-04T01:12:56.607Z,0.80
2019-01-04T01:16:11.206Z,0.80
2019-01-04T01:19:17.425Z,0.90
2019-01-04T01:22:29.471Z,0.80
2019-01-04T01:25:38.135Z,0.70
2019-01-04T01:28:42.391Z,0.80
2019-01-04T01:31:51.401Z,0.80
2019-01-04T01:34:44.598Z,0.80
2019-01-04T01:37:50.547Z,0.90
2019-01-04T01:41:06.607Z,0.80
2019-01-04T01:44:12.381Z,0.70
2019-01-04T01:46:49.535Z,0.70
2019-01-04T01:49:59.890Z,0.90
2019-01-04T01:52:36.307Z,1.00
2019-01-04T01:55:05.571Z,1.00
2019-01-04T01:57:35.012Z,1.10
2019-01-04T02:00:05.214Z,1.10
2019-01-04T02:02:34.340Z,1.10
2019-01-04T02:05:04.114Z,1.00
2019-01-04T02:07:33.249Z,1.00
2019-01-04T02:10:02.368Z,1.00
2019-01-04T02:12:32.047Z,1.00
2019-01-04T02:15:01.454Z,1.00
2019-01-04T02:17:30.578Z,1.10
2019-01-04T02:20:00.128Z,1.10
2019-01-04T02:22:29.359Z,1.10
2019-01-04T02:24:58.461Z,1.20
2019-01-04T02:27:27.585Z,1.20
2019-01-04T02:29:56.683Z,1.20
2019-01-04T02:32:25.804Z,1.30
2019-01-04T02:34:55.227Z,1.00
2019-01-04T02:37:24.335Z,0.90
2019-01-04T02:39:53.431Z,0.80
2019-01-04T02:42:23.068Z,0.70
2019-01-04T02:44:52.438Z,0.70
2019-01-04T02:47:21.546Z,0.70
2019-01-04T02:49:50.646Z,0.60
2019-01-04T02:52:19.759Z,0.60
2019-01-04T02:54:49.099Z,0.50
2019-01-04T02:57:18.212Z,0.60
2019-01-04T02:59:48.336Z,0.60
2019-01-04T03:02:17.718Z,0.70
2019-01-04T03:04:47.058Z,0.70
2019-01-04T03:07:16.467Z,0.70
2019-01-04T03:09:45.828Z,0.70
2019-01-04T03:12:15.207Z,0.80
2019-01-04T03:14:44.281Z,0.90
2019-01-04T03:17:13.686Z,1.00
2019-01-04T03:19:42.767Z,1.00
2019-01-04T03:22:12.149Z,1.10
2019-01-04T03:24:41.223Z,1.10
2019-01-04T03:27:10.597Z,1.20
2019-01-04T03:29:40.195Z,1.20
2019-01-04T03:32:09.301Z,1.20
2019-01-04T03:34:38.386Z,1.20
2019-01-04T03:37:07.487Z,1.10
2019-01-04T03:39:36.808Z,1.10
2019-01-04T03:42:06.247Z,1.10
2019-01-04T03:44:35.418Z,1.10
2019-01-04T03:47:04.829Z,1.00
2019-01-04T03:49:33.958Z,1.00
2019-01-04T03:52:03.039Z,1.00
2019-01-04T03:54:32.395Z,1.00
2019-01-04T03:57:01.484Z,1.00
2019-01-04T03:59:30.895Z,1.00
2019-01-04T04:01:59.966Z,1.00
2019-01-04T04:04:29.000Z,1.00
2019-01-04T04:06:58.154Z,1.00
2019-01-04T04:09:27.277Z,1.10
2019-01-04T04:11:56.624Z,1.10
2019-01-04T04:14:25.729Z,1.10
2019-01-04T04:16:54.810Z,1.10
2019-01-04T04:19:24.038Z,1.00
2019-01-04T04:21:53.364Z,1.00
2019-01-04T04:24:22.732Z,1.00
2019-01-04T04:26:51.839Z,1.10
2019-01-04T04:29:21.215Z,1.00
2019-01-04T04:31:50.391Z,1.00
2019-01-04T04:34:19.765Z,1.00
2019-01-04T04:36:49.179Z,1.00
2019-01-04T04:39:18.310Z,1.10
2019-01-04T04:41:47.651Z,1.10
2019-01-04T04:44:16.765Z,1.10
2019-01-04T04:46:45.870Z,1.10
2019-01-04T04:49:14.895Z,1.10
2019-01-04T04:51:44.516Z,1.10
2019-01-04T04:54:13.624Z,1.10
2019-01-04T04:56:42.704Z,1.10
2019-01-04T04:59:11.888Z,1.20
2019-01-04T05:01:41.225Z,1.10
2019-01-04T05:04:10.392Z,1.10
2019-01-04T05:06:39.479Z,1.20
2019-01-04T05:09:08.648Z,1.00
2019-01-04T05:11:37.862Z,1.10
2019-01-04T05:14:06.979Z,1.10
2019-01-04T05:16:36.319Z,1.20
2019-01-04T05:19:05.426Z,1.10
2019-01-04T05:21:34.502Z,1.10
2019-01-04T05:24:03.604Z,1.10
2019-01-04T05:26:32.743Z,1.10
2019-01-04T05:29:01.851Z,1.10
2019-01-04T05:31:31.211Z,1.00
2019-01-04T05:34:00.325Z,1.10
2019-01-04T05:36:29.421Z,1.10
2019-01-04T05:38:58.587Z,1.00
2019-01-04T05:41:27.783Z,1.00
2019-01-04T05:43:56.892Z,0.90
2019-01-04T05:46:25.997Z,0.90
2019-01-04T05:48:55.379Z,0.90
2019-01-04T05:51:24.451Z,0.80
2019-01-04T05:53:53.639Z,0.80
2019-01-04T05:56:22.798Z,0.70
2019-01-04T05:58:53.900Z,0.80
2019-01-04T06:01:23.081Z,0.80
2019-01-04T06:03:52.439Z,0.80
2019-01-04T06:06:21.543Z,0.90
2019-01-04T06:08:51.224Z,0.80
2019-01-04T06:11:20.495Z,0.80
2019-01-04T06:13:49.615Z,0.90
2019-01-04T06:16:18.702Z,0.80
2019-01-04T06:18:48.447Z,0.80
2019-01-04T06:21:17.931Z,0.80
2019-01-04T06:23:47.215Z,0.80
2019-01-04T06:26:16.406Z,0.80
2019-01-04T06:28:45.908Z,0.80
2019-01-04T06:31:15.489Z,0.90
2019-01-04T06:33:44.921Z,0.90
2019-01-04T06:36:14.085Z,0.90
2019-01-04T06:38:43.557Z,0.90
2019-01-04T06:41:12.722Z,0.90
2019-01-04T06:43:42.323Z,0.80
2019-01-04T06:46:11.765Z,0.80
2019-01-04T06:48:41.231Z,0.70
2019-01-04T06:51:10.631Z,0.60
2019-01-04T06:53:40.011Z,0.60
2019-01-04T06:56:11.159Z,0.60
2019-01-04T06:58:40.252Z,0.70
2019-01-04T07:01:09.879Z,0.70
2019-01-04T07:03:39.421Z,0.70
2019-01-04T07:06:09.663Z,0.70
2019-01-04T07:08:39.045Z,0.70
2019-01-04T07:11:08.218Z,0.70
2019-01-04T07:13:37.386Z,0.70
2019-01-04T07:16:06.687Z,0.70
2019-01-04T07:18:36.027Z,0.80
2019-01-04T07:21:05.213Z,0.70
2019-01-04T07:23:34.663Z,0.80
2019-01-04T07:26:04.111Z,0.80
2019-01-04T07:28:33.451Z,0.80
2019-01-04T07:31:02.671Z,0.80
2019-01-04T07:33:32.060Z,0.80
2019-01-04T07:36:01.628Z,0.80
2019-01-04T07:38:30.983Z,0.80
2019-01-04T07:41:01.457Z,0.90
2019-01-04T07:43:31.186Z,0.90
2019-01-04T07:46:00.281Z,0.80
2019-01-04T07:48:29.367Z,0.80
2019-01-04T07:50:58.466Z,0.80
2019-01-04T07:53:27.482Z,0.90
2019-01-04T07:55:56.846Z,0.90
2019-01-04T07:58:26.206Z,0.80
2019-01-04T08:00:55.311Z,0.90
2019-01-04T08:03:25.858Z,0.90
2019-01-04T08:05:57.911Z,1.00
2019-01-04T08:08:27.374Z,1.00
2019-01-04T08:10:56.754Z,1.00
2019-01-04T08:13:25.878Z,1.00
2019-01-04T08:15:55.262Z,1.00
2019-01-04T08:18:24.342Z,1.00
2019-01-04T08:20:53.467Z,1.10
2019-01-04T08:23:22.894Z,1.20
2019-01-04T08:25:52.518Z,1.20
2019-01-04T08:28:21.870Z,1.20
2019-01-04T08:30:51.056Z,1.30
2019-01-04T08:33:20.294Z,1.30
2019-01-04T08:35:49.937Z,1.30
2019-01-04T08:38:19.106Z,1.30
2019-01-04T08:40:48.492Z,1.40
2019-01-04T08:43:17.598Z,1.50
2019-01-04T08:45:46.814Z,1.50
2019-01-04T08:48:16.004Z,1.40
2019-01-04T08:50:45.345Z,1.40
2019-01-04T08:53:14.442Z,1.60
2019-01-04T08:55:43.533Z,1.70
2019-01-04T08:58:12.795Z,1.80
2019-01-04T09:00:42.132Z,1.90
2019-01-04T09:03:11.274Z,1.90
2019-01-04T09:05:40.354Z,2.00
2019-01-04T09:08:09.639Z,1.90
2019-01-04T09:10:39.061Z,2.00
2019-01-04T09:13:08.175Z,2.00
2019-01-04T09:15:37.594Z,2.00
2019-01-04T09:18:07.551Z,2.00
2019-01-04T09:20:36.872Z,2.00
2019-01-04T09:23:05.975Z,2.10
2019-01-04T09:25:35.800Z,2.10
2019-01-04T09:28:05.195Z,2.10
2019-01-04T09:30:34.543Z,2.10
2019-01-04T09:33:03.905Z,2.20
2019-01-04T09:35:33.054Z,2.20
2019-01-04T09:38:02.152Z,2.20
2019-01-04T09:40:31.229Z,2.10
2019-01-04T09:43:00.591Z,2.10
2019-01-04T09:45:29.991Z,2.00
2019-01-04T09:47:59.375Z,1.90
2019-01-04T09:50:28.459Z,1.90
2019-01-04T09:52:57.565Z,1.80
2019-01-04T09:55:26.886Z,1.80
2019-01-04T09:57:56.052Z,1.90
2019-01-04T10:00:26.507Z,2.00
2019-01-04T10:02:55.727Z,2.20
2019-01-04T10:05:24.988Z,2.30
2019-01-04T10:07:54.342Z,2.20
2019-01-04T10:10:23.439Z,2.40
2019-01-04T10:12:52.857Z,2.70
2019-01-04T10:15:22.783Z,2.80
2019-01-04T10:17:51.979Z,3.00
2019-01-04T10:20:21.078Z,3.10
2019-01-04T10:22:50.782Z,3.20
2019-01-04T10:25:19.929Z,3.40
2019-01-04T10:27:49.343Z,3.90
2019-01-04T10:30:26.419Z,4.40
2019-01-04T10:32:55.495Z,4.90
2019-01-04T10:35:24.589Z,5.30
2019-01-04T10:37:53.797Z,5.60
2019-01-04T10:40:22.935Z,5.90
2019-01-04T10:42:52.547Z,6.30
2019-01-04T10:45:21.725Z,6.50
2019-01-04T10:47:51.500Z,6.80
2019-01-04T10:50:20.984Z,7.00
2019-01-04T10:52:51.789Z,7.20
2019-01-04T10:55:21.367Z,7.20
2019-01-04T10:57:50.752Z,7.40
2019-01-04T11:00:20.307Z,7.30
2019-01-04T11:02:49.569Z,7.30
2019-01-04T11:05:18.807Z,7.40
2019-01-04T11:07:49.015Z,7.50
2019-01-04T11:10:18.164Z,7.60
2019-01-04T11:12:47.362Z,7.70
2019-01-04T11:15:17.306Z,7.50
2019-01-04T11:17:47.206Z,7.60
2019-01-04T11:20:42.963Z,7.70
2019-01-04T11:23:48.087Z,7.90
2019-01-04T11:26:41.110Z,7.60
2019-01-04T11:30:02.170Z,7.60
2019-01-04T11:32:55.406Z,7.20
2019-01-04T11:35:50.537Z,7.20
2019-01-04T11:38:45.052Z,6.80
2019-01-04T11:41:42.568Z,6.70
2019-01-04T11:44:35.384Z,6.40
2019-01-04T11:47:45.903Z,6.40
2019-01-04T11:50:48.150Z,6.10
2019-01-04T11:53:19.659Z,6.10
2019-01-04T11:55:48.987Z,6.20
2019-01-04T11:58:18.258Z,6.10
2019-01-04T12:00:47.907Z,6.00
2019-01-04T12:03:17.074Z,5.60
2019-01-04T12:05:46.439Z,5.60
2019-01-04T12:08:16.354Z,5.50
2019-01-04T12:10:45.582Z,5.50
2019-01-04T12:13:14.670Z,5.50
2019-01-04T12:15:43.830Z,5.40
2019-01-04T12:18:13.270Z,5.30
2019-01-04T12:20:45.443Z,5.20
2019-01-04T12:23:14.190Z,5.20
2019-01-04T12:25:43.530Z,5.20
2019-01-04T12:28:12.569Z,5.30
2019-01-04T12:30:42.241Z,5.20
2019-01-04T12:33:11.362Z,5.20
2019-01-04T12:35:40.455Z,5.10
2019-01-04T12:38:10.123Z,5.20
2019-01-04T12:40:39.872Z,5.20
2019-01-04T12:43:09.238Z,5.20
2019-01-04T12:45:38.347Z,5.20
2019-01-04T12:48:07.464Z,5.30
2019-01-04T12:50:36.838Z,5.20
2019-01-04T12:53:05.935Z,5.10
2019-01-04T12:55:35.031Z,5.10
2019-01-04T12:58:04.075Z,5.00
2019-01-04T13:00:33.427Z,5.00
2019-01-04T13:03:02.531Z,4.90
2019-01-04T13:05:31.880Z,4.90
2019-01-04T13:08:01.007Z,4.90
2019-01-04T13:10:30.495Z,4.90
2019-01-04T13:13:05.376Z,4.80
2019-01-04T13:15:35.115Z,4.90
2019-01-04T13:18:04.243Z,4.80
2019-01-04T13:20:33.399Z,4.80
2019-01-04T13:23:02.483Z,4.80
2019-01-04T13:25:31.573Z,4.80
2019-01-04T13:28:00.770Z,4.80
2019-01-04T13:30:29.872Z,4.80
2019-01-04T13:32:59.323Z,4.70
2019-01-04T13:35:28.679Z,4.70
2019-01-04T13:37:58.033Z,4.70
2019-01-04T13:40:27.272Z,4.70
2019-01-04T13:42:56.476Z,4.70
2019-01-04T13:45:25.563Z,4.70
2019-01-04T13:47:54.787Z,4.60
2019-01-04T13:50:23.892Z,4.70
2019-01-04T13:52:53.238Z,4.70
2019-01-04T13:55:22.615Z,4.70
2019-01-04T13:57:52.038Z,4.70
2019-01-04T14:00:21.119Z,4.80
2019-01-04T14:02:50.607Z,4.80
2019-01-04T14:05:19.702Z,4.80
2019-01-04T14:07:49.017Z,4.80
2019-01-04T14:10:18.587Z,4.70
2019-01-04T14:12:47.725Z,4.60
2019-01-04T14:15:18.239Z,4.70
2019-01-04T14:17:47.995Z,4.60
2019-01-04T14:20:17.744Z,4.60
2019-01-04T14:22:47.122Z,4.60
2019-01-04T14:25:16.325Z,4.60
2019-01-04T14:27:45.667Z,4.50
2019-01-04T14:30:15.012Z,4.50
2019-01-04T14:32:44.682Z,4.50
2019-01-04T14:35:13.768Z,4.50
2019-01-04T14:37:43.215Z,4.50
2019-01-04T14:40:12.655Z,4.50
2019-01-04T14:42:41.777Z,4.50
2019-01-04T14:45:10.859Z,4.50
2019-01-04T14:47:40.502Z,4.50
2019-01-04T14:50:10.714Z,4.50
2019-01-04T14:52:41.107Z,4.40
2019-01-04T14:55:10.215Z,4.50
2019-01-04T14:57:39.870Z,4.50
2019-01-04T15:00:11.471Z,4.70
2019-01-04T15:02:41.156Z,4.80
2019-01-04T15:05:10.239Z,4.80
2019-01-04T15:07:39.951Z,4.70
2019-01-04T15:10:09.779Z,4.70
2019-01-04T15:12:39.186Z,4.70
2019-01-04T15:15:08.658Z,4.70
2019-01-04T15:17:37.814Z,4.60
2019-01-04T15:20:08.205Z,4.70
2019-01-04T15:22:37.639Z,4.70
2019-01-04T15:25:07.291Z,4.60
2019-01-04T15:27:36.674Z,4.60
2019-01-04T15:30:07.719Z,4.60
2019-01-04T15:32:37.590Z,4.60
2019-01-04T15:35:06.875Z,4.70
2019-01-04T15:37:36.289Z,4.80
2019-01-04T15:40:06.435Z,4.70
2019-01-04T15:42:35.756Z,4.70
2019-01-04T15:45:06.033Z,4.70
2019-01-04T15:47:35.477Z,4.70
2019-01-04T15:50:05.043Z,4.80
2019-01-04T15:52:35.596Z,4.80
2019-01-04T15:55:08.481Z,4.70
2019-01-04T15:57:41.409Z,4.60
2019-01-04T16:00:13.769Z,4.60
2019-01-04T16:02:45.383Z,4.60
2019-01-04T16:05:21.604Z,4.60
2019-01-04T16:07:56.588Z,4.60
2019-01-04T16:10:30.663Z,4.60
2019-01-04T16:13:03.435Z,4.60
2019-01-04T16:15:39.293Z,4.60
2019-01-04T16:18:12.014Z,4.70
2019-01-04T16:20:46.741Z,4.80
2019-01-04T16:23:30.276Z,4.80
2019-01-04T16:26:04.421Z,4.70
2019-01-04T16:28:36.666Z,4.60
2019-01-04T16:31:10.040Z,4.60
2019-01-04T16:33:44.266Z,4.50
2019-01-04T16:36:16.449Z,4.50
2019-01-04T16:38:53.666Z,4.50
2019-01-04T16:41:23.267Z,4.50
2019-01-04T16:43:56.689Z,4.60
2019-01-04T16:46:39.028Z,4.60
2019-01-04T16:49:13.819Z,4.60
2019-01-04T16:51:43.245Z,4.60
2019-01-04T16:54:12.410Z,4.50
2019-01-04T16:56:42.216Z,4.50
2019-01-04T16:59:11.553Z,4.50
2019-01-04T17:01:41.130Z,4.40
2019-01-04T17:04:10.210Z,4.40
2019-01-04T17:06:39.329Z,4.30
2019-01-04T17:09:09.018Z,4.20
2019-01-04T17:11:38.735Z,4.20
2019-01-04T17:14:07.814Z,4.10
2019-01-04T17:16:37.323Z,4.10
2019-01-04T17:19:06.404Z,4.20
2019-01-04T17:21:35.611Z,4.10
2019-01-04T17:24:05.157Z,4.00
2019-01-04T17:26:55.186Z,4.10
2019-01-04T17:29:27.787Z,4.00
2019-01-04T17:32:08.727Z,4.20
2019-01-04T17:34:44.948Z,4.20
2019-01-04T17:37:14.102Z,4.20
2019-01-04T17:39:43.361Z,4.30
2019-01-04T17:42:12.526Z,4.30
2019-01-04T17:44:41.607Z,4.10
2019-01-04T17:47:11.062Z,4.10
2019-01-04T17:49:40.146Z,4.10
2019-01-04T17:52:09.286Z,4.20
2019-01-04T17:54:38.362Z,4.20
2019-01-04T17:57:07.480Z,4.10
2019-01-04T17:59:36.818Z,4.10
2019-01-04T18:02:06.142Z,4.10
2019-01-04T18:04:35.310Z,4.10
2019-01-04T18:07:05.083Z,4.10
2019-01-04T18:09:34.406Z,4.10
2019-01-04T18:12:04.226Z,4.20
2019-01-04T18:14:33.222Z,4.20
2019-01-04T18:17:02.950Z,4.30
2019-01-04T18:19:32.318Z,4.30
2019-01-04T18:22:01.994Z,4.30
2019-01-04T18:24:31.662Z,4.20
2019-01-04T18:27:00.811Z,4.20
2019-01-04T18:29:30.183Z,4.20
2019-01-04T18:31:59.412Z,4.20
2019-01-04T18:34:29.015Z,4.20
2019-01-04T18:36:58.140Z,4.30
2019-01-04T18:39:27.284Z,4.20
2019-01-04T18:41:56.427Z,4.20
2019-01-04T18:44:26.119Z,4.20
2019-01-04T18:46:55.494Z,4.20
2019-01-04T18:49:24.859Z,4.20
2019-01-04T18:51:54.255Z,4.10
2019-01-04T18:54:23.655Z,4.20
2019-01-04T18:56:52.771Z,4.30
2019-01-04T18:59:22.011Z,4.20
2019-01-04T19:01:51.430Z,4.20
2019-01-04T19:04:20.511Z,4.20
2019-01-04T19:06:49.719Z,4.20
2019-01-04T19:09:18.886Z,4.30
2019-01-04T19:11:48.209Z,4.40
2019-01-04T19:14:17.384Z,4.40
2019-01-04T19:16:46.447Z,4.40
2019-01-04T19:19:15.538Z,4.40
2019-01-04T19:21:44.968Z,4.40
2019-01-04T19:24:14.130Z,4.40
2019-01-04T19:26:43.267Z,4.40
2019-01-04T19:29:12.623Z,4.30
2019-01-04T19:31:41.770Z,4.30
2019-01-04T19:34:10.852Z,4.30
2019-01-04T19:36:40.250Z,4.40
2019-01-04T19:39:10.515Z,4.40
2019-01-04T19:41:39.835Z,4.40
2019-01-04T19:44:09.858Z,4.40
2019-01-04T19:46:39.066Z,4.40
2019-01-04T19:49:08.180Z,4.50
2019-01-04T19:51:37.540Z,4.40
2019-01-04T19:54:06.835Z,4.50
2019-01-04T19:56:35.935Z,4.40
2019-01-04T19:59:05.086Z,4.40
2019-01-04T20:01:34.174Z,4.30
2019-01-04T20:04:04.042Z,4.30
2019-01-04T20:07:51.346Z,4.30
2019-01-04T20:11:41.181Z,4.50
2019-01-04T20:15:13.972Z,4.60
2019-01-04T20:18:04.273Z,4.60
2019-01-04T20:20:51.619Z,4.80
2019-01-04T20:23:38.195Z,4.90
2019-01-04T20:26:24.927Z,5.00
2019-01-04T20:29:12.023Z,5.00
2019-01-04T20:31:58.572Z,5.00
2019-01-04T20:34:59.264Z,5.10
2019-01-04T20:37:56.572Z,5.10
2019-01-04T20:41:03.203Z,5.20
2019-01-04T20:43:51.441Z,5.20
2019-01-04T20:46:36.875Z,5.20
2019-01-04T20:49:28.080Z,4.90
2019-01-04T20:52:15.931Z,4.70
2019-01-04T20:55:03.900Z,4.70
2019-01-04T20:57:44.951Z,4.70
2019-01-04T21:00:51.344Z,4.60
2019-01-04T21:03:42.506Z,4.50
2019-01-04T21:06:36.435Z,4.50
2019-01-04T21:09:39.175Z,4.50
2019-01-04T21:12:36.182Z,4.50
2019-01-04T21:15:23.147Z,4.50
2019-01-04T21:18:14.631Z,4.60
2019-01-04T21:21:02.894Z,4.60
2019-01-04T21:23:50.351Z,4.50
2019-01-04T21:26:31.265Z,4.50
2019-01-04T21:29:19.971Z,4.50
2019-01-04T21:32:14.734Z,4.50
2019-01-04T21:35:11.154Z,4.50
2019-01-04T21:37:51.335Z,4.40
2019-01-04T21:40:45.266Z,4.30
2019-01-04T21:43:36.762Z,4.30
2019-01-04T21:46:37.323Z,4.40
2019-01-04T21:49:28.562Z,4.40
2019-01-04T21:52:22.781Z,4.40
2019-01-04T21:55:09.828Z,4.40
2019-01-04T21:57:56.485Z,4.40
2019-01-04T22:00:51.394Z,4.50
2019-01-04T22:03:38.446Z,4.60
2019-01-04T22:06:25.239Z,4.60
2019-01-04T22:09:19.494Z,4.50
2019-01-04T22:12:08.174Z,4.50
2019-01-04T22:15:01.396Z,4.60
2019-01-04T22:17:47.959Z,4.70
2019-01-04T22:20:28.014Z,4.60
2019-01-04T22:23:22.304Z,4.70
2019-01-04T22:26:28.303Z,4.70
2019-01-04T22:29:10.038Z,4.70
2019-01-04T22:31:57.079Z,4.60
2019-01-04T22:34:39.039Z,4.70
2019-01-04T22:37:39.316Z,4.70
2019-01-04T22:40:40.007Z,4.60
2019-01-04T22:43:40.299Z,4.60
2019-01-04T22:46:43.327Z,4.50
2019-01-04T22:49:38.088Z,4.50
2019-01-04T22:52:24.661Z,4.50
2019-01-04T22:55:12.799Z,4.60
2019-01-04T22:58:03.697Z,4.60
2019-01-04T23:00:52.521Z,4.60
2019-01-04T23:03:38.990Z,4.70
2019-01-04T23:06:25.879Z,4.70
2019-01-04T23:09:12.933Z,4.80
2019-01-04T23:11:59.464Z,4.70
2019-01-04T23:15:02.794Z,4.70
2019-01-04T23:17:59.798Z,4.80
2019-01-04T23:20:57.106Z,4.80
2019-01-04T23:23:38.253Z,4.70
2019-01-04T23:26:25.035Z,4.70
2019-01-04T23:29:15.929Z,4.60
2019-01-04T23:32:12.800Z,4.70
2019-01-04T23:34:57.554Z,4.60
2019-01-04T23:37:44.331Z,4.70
2019-01-04T23:40:41.383Z,4.70
2019-01-04T23:43:40.815Z,4.70
2019-01-04T23:46:28.877Z,4.70
2019-01-04T23:49:28.903Z,4.70
2019-01-04T23:52:28.454Z,4.60
2019-01-04T23:55:24.671Z,4.70
2019-01-04T23:58:11.575Z,4.60
